Time;durP1;ratioP1;P1;durP2;ratioP2;P2;SDS_P1;SDS_P2;PMS_P1;PMS_P2;Temp;Humidity;BMP_temperature;BMP_pressure;BME280_temperature;BME280_humidity;BME280_pressure;Samples;Min_cycle;Max_cycle;Signal;HPM_P1;HPM_P2
2023/07/16 00:00:43;;;;;;;3.58;2.22;;;;;;;19.46;100.00;98070.06;4158846;28;20120;-71
2023/07/16 00:02:44;;;;;;;2.22;2.00;;;;;;;19.54;100.00;98079.06;4157970;28;20527;-71
2023/07/16 00:04:44;;;;;;;3.28;2.22;;;;;;;19.58;100.00;98065.72;4166261;28;20171;-71
2023/07/16 00:06:46;;;;;;;2.78;2.20;;;;;;;19.68;100.00;98066.63;4172254;28;20044;-71
2023/07/16 00:08:46;;;;;;;2.63;2.17;;;;;;;19.73;100.00;98080.09;4158416;28;20037;-71
2023/07/16 00:10:46;;;;;;;3.72;2.40;;;;;;;19.84;100.00;98072.09;4158538;28;20063;-71
2023/07/16 00:12:47;;;;;;;2.85;2.13;;;;;;;19.90;100.00;98081.53;4158055;28;20042;-71
2023/07/16 00:14:48;;;;;;;3.75;2.22;;;;;;;19.79;100.00;98079.09;4158258;28;20092;-71
2023/07/16 00:16:48;;;;;;;3.22;2.20;;;;;;;19.75;100.00;98072.78;4157961;28;20450;-71
2023/07/16 00:18:48;;;;;;;2.60;2.17;;;;;;;19.70;100.00;98070.56;4158642;28;20073;-71
2023/07/16 00:20:49;;;;;;;2.95;2.20;;;;;;;19.79;100.00;98083.91;4159017;28;20083;-71
2023/07/16 00:22:50;;;;;;;2.55;2.22;;;;;;;19.70;100.00;98090.22;4173782;28;20053;-71
2023/07/16 00:24:50;;;;;;;2.30;1.88;;;;;;;19.80;100.00;98099.53;4172145;28;20120;-71
2023/07/16 00:26:50;;;;;;;3.35;2.17;;;;;;;19.79;100.00;98093.13;4164606;28;20061;-71
2023/07/16 00:28:51;;;;;;;3.00;2.00;;;;;;;19.72;100.00;98098.16;4167845;28;20092;-71
2023/07/16 00:30:51;;;;;;;2.45;1.90;;;;;;;19.64;100.00;98081.56;4161915;28;20358;-71
2023/07/16 00:32:51;;;;;;;2.28;1.90;;;;;;;19.62;100.00;98070.00;4157992;28;20045;-71
2023/07/16 00:34:52;;;;;;;3.50;1.92;;;;;;;19.57;100.00;98064.16;4158276;28;20480;-71
2023/07/16 00:36:52;;;;;;;2.38;1.80;;;;;;;19.58;100.00;98080.53;4157862;28;20034;-71
2023/07/16 00:38:52;;;;;;;2.75;2.08;;;;;;;19.58;100.00;98063.69;4158276;28;20042;-71
2023/07/16 00:40:52;;;;;;;2.58;2.13;;;;;;;19.57;100.00;98066.97;4158057;28;20041;-71
2023/07/16 00:42:53;;;;;;;2.13;1.92;;;;;;;19.60;100.00;98050.00;4157306;28;20507;-71
2023/07/16 00:44:53;;;;;;;2.15;1.95;;;;;;;19.72;100.00;98047.66;4158412;28;20052;-71
2023/07/16 00:46:53;;;;;;;2.20;1.77;;;;;;;19.77;100.00;98036.63;4158302;28;20048;-71
2023/07/16 00:48:54;;;;;;;2.10;1.88;;;;;;;19.87;100.00;98045.97;4158290;28;20056;-71
2023/07/16 00:50:55;;;;;;;2.42;1.98;;;;;;;19.91;100.00;98027.75;4172720;28;20092;-71
2023/07/16 00:52:56;;;;;;;2.42;1.90;;;;;;;19.92;100.00;98039.75;4162862;28;20044;-71
2023/07/16 00:54:56;;;;;;;2.80;1.90;;;;;;;19.88;100.00;98039.09;4160787;28;20096;-71
2023/07/16 00:56:57;;;;;;;2.97;1.88;;;;;;;19.90;100.00;98050.66;4157418;28;20041;-71
2023/07/16 00:58:57;;;;;;;2.53;2.08;;;;;;;19.81;100.00;98050.56;4157991;28;20052;-71
2023/07/16 01:00:57;;;;;;;3.33;2.08;;;;;;;19.80;100.00;98065.84;4157685;28;20065;-71
2023/07/16 01:02:58;;;;;;;4.75;2.20;;;;;;;19.78;100.00;98066.28;4168581;28;20045;-71
2023/07/16 01:04:59;;;;;;;3.17;2.05;;;;;;;19.74;100.00;98062.00;4172453;28;20037;-71
2023/07/16 01:07:04;;;;;;;2.45;1.77;;;;;;;19.69;100.00;98054.16;4172833;28;20043;-71
2023/07/16 01:09:14;;;;;;;3.03;2.72;;;;;;;19.70;100.00;98059.34;4172826;28;20073;-71
2023/07/16 01:11:15;;;;;;;2.47;1.88;;;;;;;19.76;100.00;98091.19;4159756;28;20393;-71
2023/07/16 01:13:16;;;;;;;2.22;1.88;;;;;;;19.83;100.00;98090.19;4157113;28;20037;-71
2023/07/16 01:15:16;;;;;;;3.03;2.10;;;;;;;19.82;100.00;98099.84;4157441;28;20154;-71
2023/07/16 01:17:16;;;;;;;3.63;2.30;;;;;;;19.78;100.00;98114.00;4157636;28;20551;-71
2023/07/16 01:19:17;;;;;;;2.50;1.60;;;;;;;19.77;100.00;98111.63;4157847;28;20047;-71
2023/07/16 01:21:23;;;;;;;2.75;1.88;;;;;;;19.78;100.00;98121.66;4157175;28;20045;-71
2023/07/16 01:23:32;;;;;;;2.30;2.10;;;;;;;19.75;100.00;98122.53;4156713;28;20048;-71
2023/07/16 01:26:03;;;;;;;3.28;2.17;;;;;;;19.74;100.00;98123.75;4156402;28;20076;-71
2023/07/16 01:28:22;;;;;;;2.47;2.05;;;;;;;19.67;100.00;98112.75;4156757;28;20095;-72
2023/07/16 01:30:23;;;;;;;3.42;2.10;;;;;;;19.64;100.00;98120.06;4163528;28;20045;-72
2023/07/16 01:32:25;;;;;;;3.42;2.28;;;;;;;19.60;100.00;98114.53;4160971;28;20046;-71
2023/07/16 01:34:28;;;;;;;5.53;2.00;;;;;;;19.55;100.00;98101.06;4160053;28;20831;-71
2023/07/16 01:36:31;;;;;;;3.05;2.03;;;;;;;19.51;100.00;98103.16;4171361;28;20048;-71
2023/07/16 01:38:31;;;;;;;3.72;2.05;;;;;;;19.49;100.00;98099.25;4172248;28;20120;-71
2023/07/16 01:40:31;;;;;;;3.28;2.22;;;;;;;19.53;100.00;98099.94;4157331;28;20395;-71
2023/07/16 01:42:32;;;;;;;3.00;1.90;;;;;;;19.55;100.00;98105.88;4156722;28;20125;-71
2023/07/16 01:44:32;;;;;;;2.22;2.03;;;;;;;19.51;100.00;98097.56;4159371;28;20050;-71
2023/07/16 01:46:33;;;;;;;2.30;2.05;;;;;;;19.51;100.00;98091.16;4159915;28;20029;-72
2023/07/16 01:48:35;;;;;;;3.97;2.30;;;;;;;19.50;100.00;98087.56;4170530;28;20149;-71
2023/07/16 01:50:36;;;;;;;3.15;2.40;;;;;;;19.47;100.00;98087.69;4156745;28;20053;-71
2023/07/16 01:52:36;;;;;;;3.30;2.20;;;;;;;19.49;100.00;98085.22;4156124;28;20096;-71
2023/07/16 01:54:36;;;;;;;3.10;2.42;;;;;;;19.58;100.00;98088.16;4158282;28;20147;-71
2023/07/16 01:56:37;;;;;;;2.67;1.92;;;;;;;19.59;100.00;98070.88;4172148;28;20680;-71
2023/07/16 01:58:37;;;;;;;3.95;2.00;;;;;;;19.62;100.00;98055.19;4171425;28;20076;-71
2023/07/16 02:00:38;;;;;;;2.97;2.00;;;;;;;19.63;100.00;98043.50;4172090;28;20088;-71
2023/07/16 02:02:39;;;;;;;4.43;2.22;;;;;;;19.73;100.00;98029.56;4171224;28;20041;-71
2023/07/16 02:04:39;;;;;;;3.83;1.83;;;;;;;19.80;100.00;98015.31;4171196;28;20045;-71
2023/07/16 02:06:39;;;;;;;1.90;1.70;;;;;;;19.81;100.00;97995.22;4171752;28;20033;-71
2023/07/16 02:08:40;;;;;;;3.00;2.20;;;;;;;19.84;100.00;97996.31;4171320;28;20037;-71
2023/07/16 02:10:40;;;;;;;2.28;2.08;;;;;;;19.80;100.00;98004.88;4171437;28;20484;-71
2023/07/16 02:12:40;;;;;;;2.15;1.63;;;;;;;19.76;100.00;97997.78;4170478;28;20526;-71
2023/07/16 02:14:41;;;;;;;2.58;2.17;;;;;;;19.67;100.00;97995.66;4157142;28;20325;-71
2023/07/16 02:16:41;;;;;;;2.55;1.95;;;;;;;19.70;100.00;97991.97;4156709;28;20041;-71
2023/07/16 02:18:41;;;;;;;2.75;1.70;;;;;;;19.73;100.00;98023.97;4156408;28;20041;-71
2023/07/16 02:20:43;;;;;;;2.42;1.80;;;;;;;19.70;100.00;98016.47;4156905;28;20621;-71
2023/07/16 02:22:44;;;;;;;3.75;1.85;;;;;;;19.69;100.00;97993.19;4156255;28;20091;-71
2023/07/16 02:24:44;;;;;;;2.60;2.00;;;;;;;19.66;100.00;97957.63;4159036;28;20135;-71
2023/07/16 02:26:45;;;;;;;2.38;1.90;;;;;;;19.60;100.00;98021.16;4171570;28;20072;-71
2023/07/16 02:28:45;;;;;;;3.55;1.92;;;;;;;19.54;100.00;98036.97;4171936;28;20490;-71
2023/07/16 02:30:45;;;;;;;2.30;1.65;;;;;;;19.48;100.00;98038.75;4170100;28;20037;-71
2023/07/16 02:32:46;;;;;;;3.20;1.65;;;;;;;19.43;100.00;98050.53;4156121;28;20041;-71
2023/07/16 02:34:46;;;;;;;3.45;1.80;;;;;;;19.38;100.00;98039.88;4156897;28;20072;-71
2023/07/16 02:36:46;;;;;;;1.95;1.70;;;;;;;19.31;100.00;98038.06;4160629;28;20045;-71
2023/07/16 02:38:47;;;;;;;2.88;1.83;;;;;;;19.30;100.00;98045.69;4173557;28;20064;-71
2023/07/16 02:40:48;;;;;;;2.30;1.70;;;;;;;19.29;100.00;98046.16;4175366;28;20053;-71
2023/07/16 02:42:48;;;;;;;2.65;1.77;;;;;;;19.28;100.00;98013.72;4174374;28;20401;-71
2023/07/16 02:44:48;;;;;;;3.03;2.10;;;;;;;19.37;100.00;97999.81;4169730;28;20507;-71
2023/07/16 02:46:49;;;;;;;1.83;1.58;;;;;;;19.44;100.00;98066.91;4159686;28;20052;-71
2023/07/16 02:48:49;;;;;;;2.40;1.70;;;;;;;19.40;100.00;98115.94;4160159;28;20259;-71
2023/07/16 02:50:49;;;;;;;1.88;1.65;;;;;;;19.31;100.00;98105.38;4159703;28;20095;-71
2023/07/16 02:52:50;;;;;;;4.18;1.70;;;;;;;19.28;100.00;98117.47;4170790;28;20049;-71
2023/07/16 02:54:50;;;;;;;3.22;1.75;;;;;;;19.22;100.00;98122.09;4169130;28;20305;-73
2023/07/16 02:56:50;;;;;;;3.63;1.70;;;;;;;19.29;100.00;98117.06;4161763;28;20425;-71
2023/07/16 02:58:51;;;;;;;2.95;1.60;;;;;;;19.36;100.00;98128.06;4160279;28;20810;-71
2023/07/16 03:00:51;;;;;;;3.40;1.60;;;;;;;19.33;100.00;98125.34;4159867;28;20199;-71
2023/07/16 03:02:51;;;;;;;2.40;1.73;;;;;;;19.32;100.00;98123.78;4159062;28;20083;-71
2023/07/16 03:04:52;;;;;;;1.70;1.50;;;;;;;19.36;100.00;98122.47;4163468;28;20037;-71
2023/07/16 03:06:52;;;;;;;2.78;1.73;;;;;;;19.37;100.00;98117.63;4172401;28;20056;-71
2023/07/16 03:08:52;;;;;;;2.03;1.60;;;;;;;19.35;100.00;98122.88;4159478;28;20037;-71
2023/07/16 03:10:53;;;;;;;2.65;1.77;;;;;;;19.39;100.00;98140.41;4159310;28;20509;-71
2023/07/16 03:12:53;;;;;;;2.90;1.70;;;;;;;19.41;100.00;98151.19;4168560;28;20552;-71
2023/07/16 03:14:54;;;;;;;2.97;1.85;;;;;;;19.41;100.00;98165.22;4175004;28;20049;-71
2023/07/16 03:16:54;;;;;;;3.90;1.80;;;;;;;19.33;100.00;98173.03;4174061;28;20047;-71
2023/07/16 03:18:54;;;;;;;3.63;1.90;;;;;;;19.30;100.00;98171.13;4174170;28;20041;-71
2023/07/16 03:20:56;;;;;;;3.28;1.85;;;;;;;19.27;100.00;98175.59;4162938;28;20045;-71
2023/07/16 03:22:56;;;;;;;3.95;1.77;;;;;;;19.23;100.00;98180.53;4158191;28;20034;-71
2023/07/16 03:24:57;;;;;;;5.38;2.00;;;;;;;19.22;100.00;98197.81;4159202;28;20049;-71
2023/07/16 03:26:57;;;;;;;2.40;1.70;;;;;;;19.24;100.00;98196.13;4159392;28;20509;-71
2023/07/16 03:28:57;;;;;;;3.95;2.00;;;;;;;19.19;100.00;98193.84;4159574;28;20428;-71
2023/07/16 03:30:58;;;;;;;2.42;1.75;;;;;;;19.18;100.00;98188.69;4165992;28;20068;-71
2023/07/16 03:32:58;;;;;;;2.25;1.90;;;;;;;19.17;100.00;98190.72;4173557;28;20076;-71
2023/07/16 03:34:58;;;;;;;3.42;2.08;;;;;;;19.16;100.00;98191.16;4173274;28;20088;-71
2023/07/16 03:36:58;;;;;;;4.15;1.60;;;;;;;19.20;100.00;98186.25;4169211;28;20132;-71
2023/07/16 03:38:59;;;;;;;2.55;2.03;;;;;;;19.12;100.00;98184.88;4173516;28;20112;-71
2023/07/16 03:41:00;;;;;;;2.85;1.75;;;;;;;19.07;100.00;98186.97;4173665;28;20334;-71
2023/07/16 03:43:00;;;;;;;3.72;1.65;;;;;;;19.02;100.00;98189.50;4173353;28;20234;-71
2023/07/16 03:45:00;;;;;;;2.25;1.70;;;;;;;18.97;100.00;98178.84;4171805;28;20033;-71
2023/07/16 03:47:01;;;;;;;1.75;1.52;;;;;;;19.05;100.00;98183.03;4159019;28;20482;-71
2023/07/16 03:49:01;;;;;;;3.78;1.98;;;;;;;19.03;100.00;98189.09;4158537;28;20037;-71
2023/07/16 03:51:01;;;;;;;3.60;2.00;;;;;;;19.05;100.00;98191.47;4158564;28;20052;-71
2023/07/16 03:53:03;;;;;;;2.38;1.80;;;;;;;19.00;100.00;98198.38;4157916;28;20037;-71
2023/07/16 03:55:03;;;;;;;3.03;1.90;;;;;;;18.96;100.00;98196.91;4159194;28;20333;-71
2023/07/16 03:57:04;;;;;;;2.42;1.90;;;;;;;18.96;100.00;98211.72;4158942;28;20465;-71
2023/07/16 03:59:04;;;;;;;3.17;1.80;;;;;;;18.94;100.00;98202.94;4163853;28;20032;-71
2023/07/16 04:01:05;;;;;;;4.25;2.28;;;;;;;18.95;100.00;98214.94;4174325;28;20053;-71
2023/07/16 04:03:05;;;;;;;2.67;2.33;;;;;;;18.93;100.00;98220.97;4172467;28;20049;-71
2023/07/16 04:05:06;;;;;;;9.43;2.38;;;;;;;18.92;100.00;98225.03;4169781;28;20057;-71
2023/07/16 04:07:06;;;;;;;2.50;2.03;;;;;;;18.98;100.00;98237.28;4158281;28;20061;-71
2023/07/16 04:09:06;;;;;;;4.32;2.05;;;;;;;18.92;100.00;98241.84;4157809;28;20125;-71
2023/07/16 04:11:07;;;;;;;2.88;2.08;;;;;;;18.91;100.00;98243.06;4158591;28;20609;-71
2023/07/16 04:13:07;;;;;;;3.63;2.08;;;;;;;18.86;100.00;98259.63;4157776;28;20045;-71
2023/07/16 04:15:12;;;;;;;2.85;2.25;;;;;;;18.86;100.00;98268.03;4165417;28;20132;-71
2023/07/16 04:17:12;;;;;;;3.30;2.40;;;;;;;18.86;100.00;98279.25;4158449;28;20061;-72
2023/07/16 04:19:12;;;;;;;4.80;2.20;;;;;;;18.80;100.00;98281.81;4158533;28;20041;-71
2023/07/16 04:21:13;;;;;;;3.67;2.30;;;;;;;18.80;100.00;98279.00;4160643;28;20414;-71
2023/07/16 04:23:13;;;;;;;2.63;2.08;;;;;;;18.85;100.00;98280.47;4160982;28;20043;-71
2023/07/16 04:25:14;;;;;;;6.50;2.10;;;;;;;18.85;100.00;98284.06;4165686;28;20132;-71
2023/07/16 04:27:14;;;;;;;3.83;2.30;;;;;;;18.85;100.00;98281.25;4161077;28;20037;-71
2023/07/16 04:29:15;;;;;;;3.78;1.77;;;;;;;18.89;100.00;98281.97;4158621;28;20087;-71
2023/07/16 04:31:15;;;;;;;4.32;2.40;;;;;;;18.86;100.00;98282.81;4158096;28;20041;-71
2023/07/16 04:33:16;;;;;;;4.30;2.13;;;;;;;18.90;100.00;98282.75;4157674;28;20041;-70
2023/07/16 04:35:16;;;;;;;3.10;1.80;;;;;;;18.91;100.00;98296.34;4158074;28;20052;-71
2023/07/16 04:37:16;;;;;;;3.55;2.10;;;;;;;18.87;100.00;98300.47;4158053;28;20046;-71
2023/07/16 04:39:17;;;;;;;5.35;1.90;;;;;;;18.81;100.00;98300.19;4158622;28;20049;-71
2023/07/16 04:41:17;;;;;;;3.67;2.13;;;;;;;18.83;100.00;98302.56;4157952;28;20501;-71
2023/07/16 04:43:17;;;;;;;2.90;1.92;;;;;;;18.85;100.00;98300.09;4168066;28;20045;-71
2023/07/16 04:45:18;;;;;;;4.13;2.10;;;;;;;18.95;100.00;98308.25;4169149;28;20120;-71
2023/07/16 04:47:18;;;;;;;4.90;1.95;;;;;;;19.01;100.00;98306.47;4160208;28;20101;-71
2023/07/16 04:49:18;;;;;;;4.13;2.10;;;;;;;19.08;100.00;98308.31;4170771;28;20045;-71
2023/07/16 04:51:19;;;;;;;2.15;1.80;;;;;;;19.11;100.00;98301.03;4171980;28;20076;-71
2023/07/16 04:53:19;;;;;;;3.00;1.90;;;;;;;19.16;100.00;98314.53;4169859;28;20556;-71
2023/07/16 04:55:19;;;;;;;5.18;1.77;;;;;;;19.19;100.00;98308.81;4158468;28;20072;-71
2023/07/16 04:57:20;;;;;;;3.70;2.10;;;;;;;19.24;100.00;98305.50;4159719;28;20129;-71
2023/07/16 04:59:20;;;;;;;4.90;2.03;;;;;;;19.30;100.00;98303.75;4166588;28;20073;-71
2023/07/16 05:01:20;;;;;;;3.42;2.13;;;;;;;19.36;100.00;98318.00;4157113;28;20126;-71
2023/07/16 05:03:21;;;;;;;4.85;2.05;;;;;;;19.42;100.00;98318.28;4157573;28;20455;-71
2023/07/16 05:05:21;;;;;;;3.78;2.00;;;;;;;19.46;100.00;98322.56;4157314;28;20432;-71
2023/07/16 05:07:21;;;;;;;4.38;2.00;;;;;;;19.50;100.00;98331.66;4157667;28;20075;-71
2023/07/16 05:09:22;;;;;;;5.63;1.88;;;;;;;19.51;100.00;98335.25;4158086;28;20042;-71
2023/07/16 05:11:22;;;;;;;3.50;1.70;;;;;;;19.50;100.00;98342.09;4171864;28;20351;-71
2023/07/16 05:13:22;;;;;;;6.78;2.33;;;;;;;19.48;100.00;98338.97;4171528;28;20546;-71
2023/07/16 05:15:22;;;;;;;5.72;1.80;;;;;;;19.42;100.00;98338.69;4172845;28;20053;-71
2023/07/16 05:17:23;;;;;;;3.88;1.60;;;;;;;19.43;100.00;98351.50;4172400;28;20713;-71
2023/07/16 05:19:23;;;;;;;6.50;2.10;;;;;;;19.42;100.00;98355.53;4160793;28;20053;-71
2023/07/16 05:21:23;;;;;;;6.82;2.08;;;;;;;19.42;100.00;98361.13;4166609;28;20308;-71
2023/07/16 05:23:24;;;;;;;4.50;1.80;;;;;;;19.46;100.00;98369.47;4158289;28;20136;-71
2023/07/16 05:25:24;;;;;;;4.25;1.85;;;;;;;19.48;100.00;98367.00;4164973;28;20084;-71
2023/07/16 05:27:24;;;;;;;5.93;2.00;;;;;;;19.49;100.00;98362.97;4172699;28;20131;-71
2023/07/16 05:29:25;;;;;;;4.10;2.10;;;;;;;19.53;100.00;98370.09;4157205;28;20476;-71
2023/07/16 05:31:25;;;;;;;6.78;2.03;;;;;;;19.50;100.00;98370.94;4159947;28;20448;-71
2023/07/16 05:33:25;;;;;;;4.28;2.20;;;;;;;19.49;100.00;98363.75;4164917;28;20446;-71
2023/07/16 05:35:26;;;;;;;6.78;1.92;;;;;;;19.48;100.00;98373.41;4156886;28;20482;-71
2023/07/16 05:37:26;;;;;;;4.53;1.90;;;;;;;19.50;100.00;98370.16;4160578;28;20040;-71
2023/07/16 05:39:27;;;;;;;4.75;1.77;;;;;;;19.48;100.00;98372.63;4162591;28;20488;-71
2023/07/16 05:41:27;;;;;;;5.20;1.52;;;;;;;19.52;100.00;98376.13;4160585;28;20559;-71
2023/07/16 05:43:27;;;;;;;2.67;1.50;;;;;;;19.55;100.00;98378.06;4160198;28;20156;-71
2023/07/16 05:45:27;;;;;;;2.88;1.70;;;;;;;19.64;100.00;98376.22;4158584;28;20045;-71
2023/07/16 05:47:28;;;;;;;8.18;2.08;;;;;;;19.70;100.00;98367.28;4156789;28;20156;-71
2023/07/16 05:49:28;;;;;;;3.05;1.70;;;;;;;19.70;100.00;98365.25;4161129;28;20132;-71
2023/07/16 05:51:28;;;;;;;4.28;1.67;;;;;;;19.83;100.00;98363.28;4157050;28;20128;-71
2023/07/16 05:53:29;;;;;;;3.22;1.65;;;;;;;19.80;100.00;98369.00;4156432;28;20480;-71
2023/07/16 05:55:29;;;;;;;6.18;1.83;;;;;;;19.63;100.00;98366.22;4157709;28;20049;-71
2023/07/16 05:57:29;;;;;;;4.03;2.10;;;;;;;19.59;100.00;98375.97;4171240;28;20055;-71
2023/07/16 05:59:34;;;;;;;2.95;1.70;;;;;;;19.62;100.00;98375.09;4159654;28;20454;-71
2023/07/16 06:01:35;;;;;;;3.28;1.88;;;;;;;19.53;100.00;98370.09;4156677;28;20622;-71
2023/07/16 06:03:35;;;;;;;5.45;1.67;;;;;;;19.42;100.00;98363.16;4156432;28;20053;-71
2023/07/16 06:05:36;;;;;;;3.30;1.92;;;;;;;19.36;100.00;98369.31;4156571;28;20114;-71
2023/07/16 06:07:37;;;;;;;3.65;1.80;;;;;;;19.27;100.00;98363.50;4156406;28;20124;-70
2023/07/16 06:09:37;;;;;;;3.50;1.83;;;;;;;19.19;100.00;98364.91;4156999;28;20426;-71
2023/07/16 06:11:38;;;;;;;5.20;1.70;;;;;;;19.09;100.00;98380.00;4154845;28;20037;-71
2023/07/16 06:13:38;;;;;;;5.10;2.17;;;;;;;19.04;100.00;98381.31;4155853;28;20076;-71
2023/07/16 06:15:38;;;;;;;4.18;1.90;;;;;;;18.99;100.00;98372.63;4156904;28;20049;-71
2023/07/16 06:17:39;;;;;;;4.65;1.80;;;;;;;18.98;100.00;98390.69;4165963;28;20048;-71
2023/07/16 06:19:39;;;;;;;4.82;1.77;;;;;;;18.92;100.00;98379.19;4167578;28;20061;-71
2023/07/16 06:21:39;;;;;;;3.22;1.70;;;;;;;18.94;100.00;98395.56;4156677;28;20041;-71
2023/07/16 06:23:40;;;;;;;7.10;1.92;;;;;;;18.98;100.00;98410.31;4155865;28;20048;-71
2023/07/16 06:25:44;;;;;;;3.92;2.15;;;;;;;19.15;100.00;98397.88;4156176;28;20160;-71
2023/07/16 06:27:44;;;;;;;4.57;1.90;;;;;;;19.24;100.00;98406.47;4156381;28;20406;-71
2023/07/16 06:29:44;;;;;;;3.08;1.95;;;;;;;19.41;100.00;98415.69;4166255;28;20445;-71
2023/07/16 06:31:58;;;;;;;2.65;1.80;;;;;;;19.49;100.00;98408.66;4155621;28;20172;-71
2023/07/16 06:33:58;;;;;;;3.67;1.88;;;;;;;19.41;100.00;98414.88;4156042;28;20058;-71
2023/07/16 06:35:58;;;;;;;4.40;1.70;;;;;;;19.40;100.00;98413.31;4156112;28;20485;-71
2023/07/16 06:37:59;;;;;;;4.63;2.40;;;;;;;19.52;100.00;98410.56;4156268;28;20341;-71
2023/07/16 06:39:59;;;;;;;3.65;1.98;;;;;;;19.56;100.00;98418.91;4156421;28;20470;-71
2023/07/16 06:42:00;;;;;;;2.75;1.92;;;;;;;19.59;100.00;98420.84;4158453;28;20060;-71
2023/07/16 06:44:00;;;;;;;3.55;1.90;;;;;;;19.64;100.00;98411.91;4162775;28;20396;-71
2023/07/16 06:46:00;;;;;;;6.68;1.88;;;;;;;19.61;100.00;98415.59;4161227;28;20034;-71
2023/07/16 06:48:00;;;;;;;2.67;1.92;;;;;;;19.69;100.00;98419.00;4156635;28;20443;-71
2023/07/16 06:50:01;;;;;;;2.65;2.20;;;;;;;19.71;99.88;98416.56;4159163;28;20053;-72
2023/07/16 06:52:02;;;;;;;2.83;1.63;;;;;;;19.72;98.78;98420.94;4162045;28;20125;-71
2023/07/16 06:54:02;;;;;;;4.55;2.05;;;;;;;19.80;98.10;98408.31;4156104;28;20360;-71
2023/07/16 06:56:03;;;;;;;5.07;1.70;;;;;;;19.84;98.18;98406.97;4159241;28;20026;-71
2023/07/16 06:58:03;;;;;;;4.07;2.03;;;;;;;19.94;97.82;98410.69;4159859;28;20497;-71
2023/07/16 07:00:05;;;;;;;4.72;1.85;;;;;;;20.02;95.23;98414.09;4163410;28;20029;-71
2023/07/16 07:02:06;;;;;;;4.78;1.48;;;;;;;20.03;92.36;98422.13;4156525;28;20030;-71
2023/07/16 07:04:06;;;;;;;3.83;1.67;;;;;;;20.00;93.68;98417.38;4159121;28;20064;-71
2023/07/16 07:06:06;;;;;;;4.00;1.73;;;;;;;20.03;95.22;98422.13;4156084;28;20048;-71
2023/07/16 07:08:07;;;;;;;3.78;1.75;;;;;;;20.12;92.81;98419.44;4156419;28;20342;-71
2023/07/16 07:10:07;;;;;;;3.72;1.90;;;;;;;20.14;92.78;98421.81;4155903;28;20441;-71
2023/07/16 07:12:08;;;;;;;4.40;1.77;;;;;;;20.14;92.76;98416.97;4156981;28;20566;-71
2023/07/16 07:14:08;;;;;;;7.80;1.83;;;;;;;20.15;92.54;98418.53;4155581;28;20037;-71
2023/07/16 07:16:08;;;;;;;3.03;1.70;;;;;;;20.20;91.12;98420.81;4155594;28;20033;-71
2023/07/16 07:18:09;;;;;;;2.97;1.63;;;;;;;20.16;91.21;98430.56;4152374;28;20542;-71
2023/07/16 07:20:10;;;;;;;2.72;1.63;;;;;;;20.22;88.29;98422.41;4156855;28;20128;-71
2023/07/16 07:22:10;;;;;;;4.80;1.67;;;;;;;20.35;90.22;98423.22;4155952;28;20021;-71
2023/07/16 07:24:10;;;;;;;5.00;2.03;;;;;;;20.42;89.76;98423.78;4158829;28;20025;-71
2023/07/16 07:26:11;;;;;;;3.90;1.60;;;;;;;20.50;88.95;98421.59;4161165;28;20029;-71
2023/07/16 07:28:11;;;;;;;6.13;2.90;;;;;;;20.59;86.57;98407.66;4158376;28;20037;-71
2023/07/16 07:30:11;;;;;;;5.40;1.48;;;;;;;20.66;85.83;98406.69;4158447;28;20376;-71
2023/07/16 07:32:12;;;;;;;4.32;1.77;;;;;;;20.76;87.00;98414.00;4166756;28;20112;-71
2023/07/16 07:34:12;;;;;;;2.38;1.60;;;;;;;20.70;85.59;98410.97;4159082;28;20057;-71
2023/07/16 07:36:12;;;;;;;4.10;1.77;;;;;;;20.71;86.64;98415.34;4159992;28;20029;-71
2023/07/16 07:38:13;;;;;;;3.72;1.90;;;;;;;20.71;84.50;98411.75;4173772;28;20025;-71
2023/07/16 07:40:13;;;;;;;5.63;2.20;;;;;;;20.59;82.37;98426.56;4162805;28;20076;-71
2023/07/16 07:42:14;;;;;;;5.32;1.67;;;;;;;20.64;83.21;98424.00;4158991;28;20088;-71
2023/07/16 07:44:14;;;;;;;6.22;1.65;;;;;;;20.69;84.53;98423.44;4162339;28;20033;-71
2023/07/16 07:46:14;;;;;;;5.45;1.70;;;;;;;20.77;83.23;98438.09;4164165;28;20088;-71
2023/07/16 07:48:14;;;;;;;3.85;1.60;;;;;;;20.65;81.43;98430.41;4174052;28;20595;-71
2023/07/16 07:50:15;;;;;;;5.20;1.63;;;;;;;20.64;82.66;98434.44;4170682;28;20029;-71
2023/07/16 07:52:15;;;;;;;5.45;1.70;;;;;;;20.71;79.82;98435.03;4163473;28;20036;-71
2023/07/16 07:54:16;;;;;;;4.20;1.52;;;;;;;20.59;80.06;98427.34;4158263;28;20084;-71
2023/07/16 07:56:16;;;;;;;6.65;1.70;;;;;;;20.73;79.21;98435.38;4160100;28;20037;-71
2023/07/16 07:58:16;;;;;;;6.28;1.55;;;;;;;20.70;76.83;98435.47;4158239;28;20308;-71
2023/07/16 08:00:17;;;;;;;3.50;1.45;;;;;;;20.51;76.33;98437.22;4158926;28;20081;-71
2023/07/16 08:02:18;;;;;;;2.50;1.10;;;;;;;20.46;76.43;98438.56;4158805;28;20552;-71
2023/07/16 08:04:18;;;;;;;3.58;1.30;;;;;;;20.37;80.38;98435.59;4157712;28;20122;-71
2023/07/16 08:06:19;;;;;;;3.88;1.55;;;;;;;20.25;79.08;98443.97;4158870;28;20318;-71
2023/07/16 08:08:19;;;;;;;4.90;1.60;;;;;;;20.09;78.48;98448.41;4158761;28;20531;-71
2023/07/16 08:10:19;;;;;;;3.83;1.50;;;;;;;20.00;80.10;98455.88;4164296;28;20116;-71
2023/07/16 08:12:20;;;;;;;3.75;1.73;;;;;;;19.95;81.55;98450.81;4174259;28;20023;-71
2023/07/16 08:14:20;;;;;;;3.88;1.35;;;;;;;19.96;82.37;98453.19;4166887;28;20118;-71
2023/07/16 08:16:20;;;;;;;4.82;1.67;;;;;;;19.84;79.75;98449.06;4164644;28;20076;-71
2023/07/16 08:18:21;;;;;;;3.80;1.75;;;;;;;19.77;81.57;98443.63;4174096;28;20531;-71
2023/07/16 08:20:21;;;;;;;5.10;2.00;;;;;;;19.81;79.03;98454.78;4173426;28;20045;-71
2023/07/16 08:22:21;;;;;;;4.15;1.75;;;;;;;19.74;79.70;98455.75;4172307;28;20060;-71
2023/07/16 08:24:22;;;;;;;4.85;2.00;;;;;;;19.81;79.29;98454.78;4172316;28;20384;-70
2023/07/16 08:26:22;;;;;;;5.25;1.77;;;;;;;19.81;80.06;98460.41;4174139;28;20044;-70
2023/07/16 08:28:22;;;;;;;3.97;2.00;;;;;;;19.93;80.59;98465.28;4167262;28;20045;-71
2023/07/16 08:30:23;;;;;;;5.68;1.83;;;;;;;19.92;81.15;98469.31;4158190;28;20306;-71
2023/07/16 08:32:23;;;;;;;4.85;2.05;;;;;;;20.06;80.85;98468.97;4157964;28;20038;-71
2023/07/16 08:34:23;;;;;;;4.35;1.70;;;;;;;20.29;80.58;98467.94;4161633;28;20056;-71
2023/07/16 08:36:24;;;;;;;3.67;2.00;;;;;;;20.46;80.59;98472.28;4172349;28;20045;-71
2023/07/16 08:38:24;;;;;;;4.53;1.80;;;;;;;20.46;80.68;98465.88;4173466;28;20052;-71
2023/07/16 08:40:27;;;;;;;5.35;1.98;;;;;;;20.46;79.77;98466.69;4169838;28;20053;-70
2023/07/16 08:42:27;;;;;;;4.30;2.03;;;;;;;20.44;80.04;98468.38;4157318;28;20406;-71
2023/07/16 08:44:29;;;;;;;4.13;1.80;;;;;;;20.40;80.13;98471.22;4157682;28;20061;-71
2023/07/16 08:46:29;;;;;;;5.32;1.85;;;;;;;20.46;80.81;98472.28;4157982;28;20067;-71
2023/07/16 08:48:30;;;;;;;3.63;2.28;;;;;;;20.48;80.91;98458.59;4157940;28;20125;-70
2023/07/16 08:50:31;;;;;;;3.50;1.77;;;;;;;20.68;80.99;98464.00;4172162;28;20044;-71
2023/07/16 08:52:32;;;;;;;5.07;2.45;;;;;;;20.86;80.31;98463.50;4172254;28;20052;-71
2023/07/16 08:54:32;;;;;;;2.75;1.73;;;;;;;21.00;79.54;98453.84;4172252;28;20236;-71
2023/07/16 08:56:32;;;;;;;4.43;1.90;;;;;;;21.14;80.37;98461.06;4172006;28;20045;-71
2023/07/16 08:58:33;;;;;;;5.20;1.88;;;;;;;21.25;80.15;98451.03;4172089;28;20041;-71
2023/07/16 09:00:34;;;;;;;7.20;1.90;;;;;;;21.29;79.48;98456.59;4173783;28;20040;-71
2023/07/16 09:02:34;;;;;;;3.92;1.80;;;;;;;21.29;77.58;98460.19;4171324;28;20481;-71
2023/07/16 09:04:34;;;;;;;3.83;1.80;;;;;;;21.26;78.13;98461.03;4172298;28;20059;-71
2023/07/16 09:06:35;;;;;;;7.28;1.98;;;;;;;21.21;79.66;98452.38;4173457;28;20120;-71
2023/07/16 09:08:35;;;;;;;7.65;2.00;;;;;;;21.23;80.13;98461.16;4157768;28;20072;-71
2023/07/16 09:10:36;;;;;;;3.17;1.80;;;;;;;21.23;79.67;98447.09;4157165;28;20414;-71
2023/07/16 09:12:44;;;;;;;5.50;2.05;;;;;;;21.20;74.38;98459.25;4157818;28;20067;-71
2023/07/16 09:14:46;;;;;;;5.38;2.00;;;;;;;21.16;75.20;98469.81;4157373;28;20041;-71
2023/07/16 09:16:51;;;;;;;4.97;1.85;;;;;;;21.24;74.87;98457.91;4157418;28;20128;-71
2023/07/16 09:18:51;;;;;;;6.05;2.67;;;;;;;21.30;75.18;98466.59;4157699;28;20048;-71
2023/07/16 09:21:01;;;;;;;3.65;2.33;;;;;;;21.44;74.92;98468.19;4157287;28;20545;-70
2023/07/16 09:23:01;;;;;;;3.83;2.05;;;;;;;21.59;74.74;98466.44;4156800;28;20033;-71